logo
Search for airport 
image banner adimage banner adimage banner ad
image banner ad

EHMC - National Ats Cell Schiphol Oost

Located in , Netherlands

ICAO - EHMC, IATA -

Data provided by Airmate  

General information

Coordinates: N52°14'1" E5°43'55"
Elevation is 115 feet MSL.
 
View others Airports in Gelderland

Operational data

Special qualification required
Current time UTC:
Current local time:
Weather at : EHDL - Deelen ( 22 km )
METAR: EHDL 150825Z AUTO 22015KT 140V290 9999 BKN021 OVC025 10/05 Q1008 WHT
View NOTAMs / SUP AIP / TFR affecting this airport [VIEW]
Communications frequencies: [VIEW]

Runways:

Airport contact information

Address: Netherlands

Satellite view of EHMC